Time;durP1;ratioP1;P1;durP2;ratioP2;P2;SDS_P1;SDS_P2;PMS_P1;PMS_P2;Temp;Humidity;BMP_temperature;BMP_pressure;BME280_temperature;BME280_humidity;BME280_pressure;Samples;Min_cycle;Max_cycle;Signal;HPM_P1;HPM_P2
2021/04/05 00:00:00;;;;;;;38.00;12.88;;;5.10;90.10;;;;;;5086738;28;20119;-83
2021/04/05 00:02:26;;;;;;;30.80;12.85;;;5.10;90.00;;;;;;5092911;28;20036;-83
2021/04/05 00:04:52;;;;;;;31.35;13.82;;;5.10;90.10;;;;;;5074095;28;20020;-81
2021/04/05 00:07:18;;;;;;;34.63;13.60;;;5.20;90.10;;;;;;5072142;28;20064;-82
2021/04/05 00:09:45;;;;;;;41.30;14.45;;;5.10;90.00;;;;;;5078967;28;20482;-83
2021/04/05 00:12:11;;;;;;;31.73;11.82;;;5.20;90.10;;;;;;5072836;28;20088;-82
2021/04/05 00:14:39;;;;;;;30.27;13.65;;;5.20;90.10;;;;;;5091389;28;20058;-80
2021/04/05 00:17:05;;;;;;;36.35;13.20;;;5.20;90.10;;;;;;5091694;28;20103;-83
2021/04/05 00:19:33;;;;;;;35.45;13.98;;;5.30;90.10;;;;;;5056841;28;20123;-81
2021/04/05 00:21:59;;;;;;;34.63;13.98;;;5.30;90.50;;;;;;5089112;28;20025;-80
2021/04/05 00:24:25;;;;;;;30.95;14.18;;;5.30;90.20;;;;;;5092785;28;20486;-82
2021/04/05 00:26:51;;;;;;;34.42;13.65;;;5.40;90.10;;;;;;5069819;28;20245;-81
2021/04/05 00:29:17;;;;;;;36.30;14.05;;;5.50;90.30;;;;;;5074803;28;20032;-82
2021/04/05 00:31:42;;;;;;;35.63;13.95;;;5.50;90.20;;;;;;5064231;28;20518;-82
2021/04/05 00:34:08;;;;;;;30.45;13.77;;;5.50;90.20;;;;;;5072280;28;20036;-81
2021/04/05 00:36:34;;;;;;;30.33;13.82;;;5.50;90.20;;;;;;5059005;28;20036;-82
2021/04/05 00:39:00;;;;;;;36.97;13.52;;;5.60;90.30;;;;;;5070868;28;20071;-82
2021/04/05 00:41:26;;;;;;;36.05;14.68;;;5.60;90.20;;;;;;5072691;28;20028;-82
2021/04/05 00:43:52;;;;;;;38.42;16.55;;;5.60;90.30;;;;;;5073345;28;20034;-82
2021/04/05 00:46:21;;;;;;;40.10;14.73;;;5.70;90.30;;;;;;5071629;28;20115;-81
2021/04/05 00:48:48;;;;;;;34.90;14.88;;;5.70;90.30;;;;;;5080548;28;20048;-83
2021/04/05 00:51:18;;;;;;;32.90;14.48;;;5.70;90.20;;;;;;5087310;28;20495;-82
2021/04/05 00:53:45;;;;;;;41.70;14.93;;;5.70;90.40;;;;;;5087232;28;20371;-83
2021/04/05 00:56:17;;;;;;;31.35;14.85;;;5.80;90.40;;;;;;5088285;28;20052;-82
2021/04/05 00:58:43;;;;;;;38.90;15.05;;;5.70;90.40;;;;;;5082497;28;20043;-82
2021/04/05 01:01:12;;;;;;;44.72;15.60;;;5.80;90.50;;;;;;5054705;28;20479;-83
2021/04/05 01:03:42;;;;;;;39.95;14.98;;;5.80;90.50;;;;;;5080503;28;20558;-82
2021/04/05 01:06:27;;;;;;;39.67;15.68;;;5.80;90.40;;;;;;5084907;28;20063;-82
2021/04/05 01:08:54;;;;;;;35.47;15.20;;;5.90;90.70;;;;;;5085447;28;20252;-84
2021/04/05 01:11:23;;;;;;;38.72;16.23;;;5.90;90.50;;;;;;5088674;28;20029;-85
2021/04/05 01:13:49;;;;;;;48.17;17.00;;;6.00;90.60;;;;;;5087771;28;20028;-83
2021/04/05 01:16:16;;;;;;;42.83;16.45;;;6.00;90.80;;;;;;5067199;28;20527;-83
2021/04/05 01:18:42;;;;;;;45.58;16.27;;;6.10;90.90;;;;;;5050349;28;20068;-82
2021/04/05 01:21:09;;;;;;;44.70;16.00;;;6.10;90.80;;;;;;5062911;28;20060;-83
2021/04/05 01:23:36;;;;;;;52.88;16.73;;;6.20;90.70;;;;;;5081873;28;20038;-83
2021/04/05 01:26:03;;;;;;;41.67;16.08;;;6.20;90.80;;;;;;5063361;28;20430;-83
2021/04/05 01:28:28;;;;;;;51.28;16.95;;;6.20;90.80;;;;;;5088928;28;20031;-85
2021/04/05 01:30:57;;;;;;;47.70;17.20;;;6.20;90.70;;;;;;5063465;28;20471;-82
2021/04/05 01:33:37;;;;;;;50.95;17.58;;;6.30;90.80;;;;;;5077419;28;20038;-84
2021/04/05 01:36:05;;;;;;;45.90;17.50;;;6.30;90.90;;;;;;5086857;28;20440;-84
2021/04/05 01:38:46;;;;;;;51.35;16.83;;;6.30;90.90;;;;;;5087161;28;20230;-83
2021/04/05 01:41:30;;;;;;;46.25;18.13;;;6.40;90.90;;;;;;5081821;28;20036;-83
2021/04/05 01:43:57;;;;;;;42.13;17.15;;;6.40;91.00;;;;;;5081750;28;20475;-82
2021/04/05 01:46:25;;;;;;;49.17;17.65;;;6.50;91.10;;;;;;5081481;28;20078;-83
2021/04/05 01:48:51;;;;;;;51.83;17.08;;;6.60;91.10;;;;;;5076329;28;20444;-83
2021/04/05 01:51:20;;;;;;;51.63;17.65;;;6.60;91.00;;;;;;5066633;28;20028;-82
2021/04/05 01:53:47;;;;;;;51.40;18.27;;;6.70;91.10;;;;;;5085799;28;20420;-82
2021/04/05 01:56:15;;;;;;;51.17;18.50;;;6.70;91.10;;;;;;5077717;28;20036;-83
2021/04/05 01:58:45;;;;;;;51.50;17.63;;;6.80;91.10;;;;;;5063261;28;20040;-83
2021/04/05 02:01:15;;;;;;;53.60;16.02;;;6.80;91.00;;;;;;5070310;28;20052;-81
2021/04/05 02:03:42;;;;;;;44.88;16.40;;;6.90;91.20;;;;;;5103819;28;20043;-83
2021/04/05 02:06:23;;;;;;;41.38;15.57;;;6.90;91.30;;;;;;5081965;28;20120;-81
2021/04/05 02:08:50;;;;;;;44.33;15.57;;;6.90;91.10;;;;;;5062829;28;20113;-82
2021/04/05 02:11:18;;;;;;;47.38;15.68;;;7.00;90.90;;;;;;5083680;28;20048;-82
2021/04/05 02:13:46;;;;;;;39.28;14.35;;;7.00;90.80;;;;;;5066291;28;20031;-82
2021/04/05 02:16:16;;;;;;;48.03;14.77;;;7.10;90.70;;;;;;5060789;28;20089;-81
2021/04/05 02:18:43;;;;;;;37.88;12.07;;;7.10;90.60;;;;;;5085172;28;20078;-79
2021/04/05 02:21:18;;;;;;;37.42;12.00;;;7.20;90.40;;;;;;5065799;28;20482;-82
2021/04/05 02:23:46;;;;;;;32.85;11.18;;;7.30;90.30;;;;;;5071602;28;20054;-82
2021/04/05 02:26:14;;;;;;;35.90;12.80;;;7.30;90.00;;;;;;5065908;28;20054;-80
2021/04/05 02:28:48;;;;;;;34.05;12.10;;;7.40;89.70;;;;;;5089990;28;20088;-83
2021/04/05 02:31:16;;;;;;;29.08;11.32;;;7.50;89.30;;;;;;5086334;28;20032;-81
2021/04/05 02:33:45;;;;;;;36.38;12.80;;;7.50;89.10;;;;;;5088697;28;20028;-79
2021/04/05 02:36:13;;;;;;;34.20;12.63;;;7.50;88.90;;;;;;5082361;28;20039;-83
2021/04/05 02:38:42;;;;;;;37.47;11.20;;;7.50;88.80;;;;;;5083318;28;20048;-80
2021/04/05 02:41:09;;;;;;;35.15;10.60;;;7.50;88.70;;;;;;5097560;28;20254;-81
2021/04/05 02:43:36;;;;;;;35.08;10.73;;;7.50;88.40;;;;;;5096321;28;20028;-81
2021/04/05 02:46:04;;;;;;;36.25;11.07;;;7.60;88.20;;;;;;5038280;28;20036;-82
2021/04/05 02:48:33;;;;;;;27.20;10.82;;;7.60;88.10;;;;;;5082128;28;20056;-82
2021/04/05 02:51:02;;;;;;;33.33;10.77;;;7.60;87.90;;;;;;5077106;28;21587;-81
2021/04/05 02:53:29;;;;;;;31.63;10.55;;;7.60;87.90;;;;;;5069715;28;20073;-81
2021/04/05 02:55:59;;;;;;;33.97;9.80;;;7.50;87.80;;;;;;5086769;28;20449;-81
2021/04/05 02:58:25;;;;;;;31.98;10.13;;;7.60;87.70;;;;;;5075009;28;20040;-82
2021/04/05 03:00:51;;;;;;;28.60;9.85;;;7.60;87.60;;;;;;5068521;28;20036;-84
2021/04/05 03:03:18;;;;;;;32.28;9.88;;;7.60;87.50;;;;;;5069147;28;20036;-81
2021/04/05 03:05:45;;;;;;;29.27;9.10;;;7.60;87.50;;;;;;5088890;28;20145;-82
2021/04/05 03:08:11;;;;;;;30.17;9.40;;;7.60;87.30;;;;;;5065569;28;20063;-84
2021/04/05 03:10:37;;;;;;;24.77;9.73;;;7.60;87.30;;;;;;5066196;28;20319;-82
2021/04/05 03:13:03;;;;;;;33.15;9.93;;;7.60;87.50;;;;;;5059456;28;20036;-83
2021/04/05 03:15:30;;;;;;;32.85;9.75;;;7.60;87.30;;;;;;5069549;28;20518;-84
2021/04/05 03:18:01;;;;;;;32.58;10.13;;;7.60;88.20;;;;;;5062834;28;20104;-82
2021/04/05 03:20:33;;;;;;;32.83;9.68;;;7.60;87.80;;;;;;5063225;28;20044;-80
2021/04/05 03:23:00;;;;;;;35.53;9.70;;;7.50;88.20;;;;;;5084496;28;20797;-82
2021/04/05 03:25:26;;;;;;;37.63;10.23;;;7.50;88.50;;;;;;5076691;28;20301;-79
2021/04/05 03:27:53;;;;;;;37.50;10.90;;;7.40;88.70;;;;;;5087554;28;20047;-81
2021/04/05 03:30:41;;;;;;;33.63;10.43;;;7.40;89.20;;;;;;5082664;28;20140;-81
2021/04/05 03:33:14;;;;;;;30.77;10.60;;;7.30;90.10;;;;;;5079552;28;20068;-82
2021/04/05 03:35:42;;;;;;;34.30;10.10;;;7.20;90.00;;;;;;5086571;28;20028;-84
2021/04/05 03:38:11;;;;;;;33.88;10.55;;;7.20;90.10;;;;;;5071368;28;20028;-83
2021/04/05 03:40:44;;;;;;;31.63;9.90;;;7.20;90.50;;;;;;5072409;28;20046;-82
2021/04/05 03:43:30;;;;;;;38.33;10.85;;;7.10;90.50;;;;;;5056427;28;20029;-83
2021/04/05 03:46:21;;;;;;;33.13;10.80;;;7.10;90.80;;;;;;5079744;28;20057;-83
2021/04/05 03:48:57;;;;;;;36.92;9.82;;;7.00;90.80;;;;;;5087950;28;20078;-83
2021/04/05 03:51:31;;;;;;;30.52;9.55;;;7.00;90.90;;;;;;5087323;28;20035;-84
2021/04/05 03:54:10;;;;;;;32.53;10.32;;;6.90;91.20;;;;;;5087055;28;20032;-85
2021/04/05 03:56:45;;;;;;;42.33;11.90;;;6.90;91.40;;;;;;5086526;28;20089;-84
2021/04/05 03:59:26;;;;;;;36.25;10.77;;;6.90;91.30;;;;;;5080130;28;20035;-83
2021/04/05 04:02:01;;;;;;;43.72;10.80;;;6.90;91.30;;;;;;5088180;28;20036;-84
2021/04/05 04:07:15;;;;;;;28.33;7.03;;;6.90;91.60;;;;;;5085418;28;20501;-82
2021/04/05 04:09:43;;;;;;;20.30;4.22;;;6.80;91.80;;;;;;5080855;28;20066;-83
2021/04/05 04:12:13;;;;;;;18.15;4.20;;;6.70;91.70;;;;;;5076321;28;20309;-83
2021/04/05 04:14:41;;;;;;;25.08;3.95;;;6.50;91.60;;;;;;5093089;28;20371;-84
2021/04/05 04:17:09;;;;;;;24.63;3.83;;;6.40;91.60;;;;;;5064516;28;20273;-83
2021/04/05 04:19:37;;;;;;;30.35;4.35;;;6.20;91.50;;;;;;5063921;28;20044;-83
2021/04/05 04:22:05;;;;;;;23.25;3.05;;;6.10;91.60;;;;;;5088885;28;20556;-84
2021/04/05 04:24:35;;;;;;;17.55;3.60;;;6.00;91.80;;;;;;5093050;28;20036;-83
2021/04/05 04:27:02;;;;;;;20.88;3.42;;;5.90;91.90;;;;;;5072187;28;20028;-84
2021/04/05 04:29:28;;;;;;;11.57;2.47;;;5.90;92.00;;;;;;5091322;28;20039;-85
2021/04/05 04:31:54;;;;;;;9.30;1.75;;;5.80;91.90;;;;;;5066852;28;20032;-83
2021/04/05 04:34:21;;;;;;;10.50;2.35;;;5.70;91.80;;;;;;5088794;28;20111;-82
2021/04/05 04:36:48;;;;;;;12.73;2.15;;;5.60;91.70;;;;;;5074551;28;20036;-83
2021/04/05 04:39:16;;;;;;;13.80;1.60;;;5.60;91.80;;;;;;5087191;28;20028;-83
2021/04/05 04:41:43;;;;;;;5.13;1.08;;;5.50;91.90;;;;;;5090803;28;20498;-82
2021/04/05 04:44:11;;;;;;;6.88;1.27;;;5.40;91.90;;;;;;5070075;28;20112;-82
2021/04/05 04:46:37;;;;;;;5.18;0.68;;;5.20;92.00;;;;;;5073310;28;20482;-82
2021/04/05 04:49:05;;;;;;;4.80;0.75;;;5.10;92.10;;;;;;5089861;28;20036;-83
2021/04/05 04:51:33;;;;;;;4.95;0.60;;;4.80;92.40;;;;;;5086370;28;20504;-85
2021/04/05 04:54:01;;;;;;;3.40;0.90;;;4.60;92.10;;;;;;5085890;28;20028;-82
2021/04/05 04:56:28;;;;;;;4.85;0.80;;;4.50;92.00;;;;;;5086223;28;20028;-83
2021/04/05 04:59:03;;;;;;;3.10;0.77;;;4.30;92.10;;;;;;5067352;28;20036;-87
2021/04/05 05:01:33;;;;;;;4.97;0.93;;;4.20;92.20;;;;;;5090693;28;20036;-85
2021/04/05 05:04:10;;;;;;;7.97;1.00;;;4.20;92.30;;;;;;5076179;28;20037;-84
2021/04/05 05:06:37;;;;;;;9.07;0.98;;;4.10;92.30;;;;;;5084352;28;20093;-84
2021/04/05 05:09:05;;;;;;;4.30;0.90;;;4.00;92.30;;;;;;5071085;28;20049;-83
2021/04/05 05:11:32;;;;;;;7.60;0.98;;;3.90;92.40;;;;;;5083735;28;20071;-82
2021/04/05 05:13:59;;;;;;;6.97;1.00;;;3.90;92.70;;;;;;5073693;28;20089;-83
2021/04/05 05:16:28;;;;;;;7.68;1.48;;;3.80;92.50;;;;;;5054663;28;20052;-82
2021/04/05 05:18:56;;;;;;;6.75;1.20;;;3.80;92.50;;;;;;5092601;28;20036;-83
2021/04/05 05:21:30;;;;;;;3.97;0.95;;;3.80;92.60;;;;;;5074111;28;20036;-83
2021/04/05 05:24:05;;;;;;;10.00;1.67;;;3.70;92.80;;;;;;5093525;28;20039;-82
2021/04/05 05:26:37;;;;;;;10.35;1.15;;;3.80;92.80;;;;;;5091463;28;20073;-82
2021/04/05 05:29:07;;;;;;;8.00;1.23;;;3.70;92.90;;;;;;5094778;28;20036;-82
2021/04/05 05:31:42;;;;;;;7.43;1.20;;;3.70;93.00;;;;;;5087979;28;20548;-82
2021/04/05 05:34:14;;;;;;;5.72;0.93;;;3.80;93.20;;;;;;5088008;28;20036;-85
2021/04/05 05:36:42;;;;;;;4.83;0.93;;;3.70;93.20;;;;;;5078378;28;20123;-82
2021/04/05 05:39:09;;;;;;;6.82;1.45;;;3.70;93.10;;;;;;5088630;28;20028;-82
2021/04/05 05:41:58;;;;;;;5.50;0.80;;;3.70;93.00;;;;;;5065546;28;20056;-83
2021/04/05 05:44:34;;;;;;;4.85;0.60;;;3.70;93.00;;;;;;5079712;28;20082;-83
2021/04/05 05:47:21;;;;;;;2.17;0.55;;;3.50;92.90;;;;;;5085468;28;20036;-83
2021/04/05 05:50:13;;;;;;;4.05;0.50;;;3.50;93.00;;;;;;5085037;28;20109;-82
2021/04/05 05:53:05;;;;;;;6.82;0.85;;;3.40;93.10;;;;;;5083382;28;20040;-82
2021/04/05 05:55:54;;;;;;;1.73;0.60;;;3.30;93.10;;;;;;5066240;28;20048;-83
2021/04/05 05:58:58;;;;;;;2.55;0.88;;;3.20;93.20;;;;;;5083394;28;20031;-84
2021/04/05 06:01:39;;;;;;;4.28;0.90;;;3.20;93.30;;;;;;5081989;28;20031;-82
2021/04/05 06:04:42;;;;;;;8.15;0.98;;;3.20;93.30;;;;;;5084430;28;20034;-82
2021/04/05 06:07:27;;;;;;;4.60;0.70;;;3.20;93.30;;;;;;5078232;28;20395;-83
2021/04/05 06:10:17;;;;;;;3.60;0.73;;;3.20;93.30;;;;;;5085991;28;20039;-83
2021/04/05 06:13:27;;;;;;;5.55;0.93;;;3.20;93.30;;;;;;5066967;28;20071;-82
2021/04/05 06:16:32;;;;;;;10.55;1.17;;;3.10;93.20;;;;;;5035117;28;20298;-80
2021/04/05 06:18:58;;;;;;;8.85;1.05;;;3.00;93.00;;;;;;5010498;28;20056;-83
2021/04/05 06:21:36;;;;;;;7.20;1.02;;;3.00;92.90;;;;;;5067807;28;20126;-83
2021/04/05 06:24:09;;;;;;;6.13;1.13;;;2.90;92.90;;;;;;5080070;28;20036;-83
2021/04/05 06:26:50;;;;;;;12.80;1.20;;;2.80;92.90;;;;;;5079841;28;20047;-83
2021/04/05 06:29:25;;;;;;;15.05;1.25;;;2.90;92.90;;;;;;5083131;28;20040;-83
2021/04/05 06:31:59;;;;;;;13.20;1.80;;;2.90;92.90;;;;;;5082039;28;20040;-83
2021/04/05 06:34:34;;;;;;;12.07;1.77;;;2.90;92.90;;;;;;5070128;28;20044;-84
2021/04/05 06:37:25;;;;;;;10.27;1.20;;;2.90;92.90;;;;;;5084541;28;20039;-84
2021/04/05 06:39:57;;;;;;;13.70;1.45;;;2.90;92.90;;;;;;5080145;28;20093;-85
2021/04/05 06:42:23;;;;;;;;;;;2.90;92.80;;;;;;5065975;28;20045;-84
2021/04/05 06:45:10;;;;;;;14.30;1.58;;;2.90;92.90;;;;;;5088459;28;19955;-85
2021/04/05 06:47:57;;;;;;;10.00;1.38;;;2.90;92.70;;;;;;5081105;28;20517;-83
2021/04/05 06:50:42;;;;;;;13.38;1.42;;;2.90;92.70;;;;;;5087317;28;20054;-84
2021/04/05 06:53:33;;;;;;;16.02;2.10;;;3.00;92.70;;;;;;5087888;28;20070;-83
2021/04/05 06:56:02;;;;;;;15.00;1.90;;;3.00;92.70;;;;;;5081942;28;20510;-83
2021/04/05 06:59:08;;;;;;;11.32;1.95;;;3.10;92.50;;;;;;5047071;28;20076;-84
2021/04/05 07:01:56;;;;;;;20.08;2.05;;;3.10;92.40;;;;;;5082982;28;20048;-83
2021/04/05 07:04:49;;;;;;;13.80;2.22;;;3.10;92.10;;;;;;5079051;28;20040;-84
2021/04/05 07:08:06;;;;;;;16.05;2.45;;;3.20;92.00;;;;;;5083317;28;20024;-85
2021/04/05 07:10:40;;;;;;;19.25;1.80;;;3.20;91.60;;;;;;5047999;28;20070;-83
2021/04/05 07:13:29;;;;;;;14.32;2.15;;;3.20;91.20;;;;;;5091573;28;20028;-85
2021/04/05 07:16:22;;;;;;;13.55;2.20;;;3.20;91.20;;;;;;5087556;28;20039;-85
2021/04/05 07:19:27;;;;;;;19.05;2.00;;;3.30;91.10;;;;;;5081961;28;20418;-84
2021/04/05 07:22:16;;;;;;;13.93;1.85;;;3.30;91.00;;;;;;5090571;28;20043;-84
2021/04/05 07:24:52;;;;;;;17.33;2.00;;;3.40;91.00;;;;;;5032795;28;20064;-81
2021/04/05 07:27:29;;;;;;;21.25;2.85;;;3.30;90.50;;;;;;5076791;28;20052;-83
2021/04/05 07:30:21;;;;;;;11.43;1.80;;;3.30;90.60;;;;;;5076266;28;20035;-84
2021/04/05 07:33:23;;;;;;;18.70;2.53;;;3.30;90.70;;;;;;5083353;28;20808;-82
2021/04/05 07:36:10;;;;;;;13.55;1.90;;;3.20;90.60;;;;;;5083846;28;20067;-83
2021/04/05 07:39:08;;;;;;;11.23;1.63;;;3.20;90.50;;;;;;5084376;28;20036;-85
2021/04/05 07:41:52;;;;;;;12.77;1.58;;;3.20;90.60;;;;;;5081760;28;20044;-83
2021/04/05 07:44:57;;;;;;;10.68;1.50;;;3.10;90.10;;;;;;5088088;28;20048;-86
2021/04/05 07:47:35;;;;;;;4.38;1.02;;;3.20;90.20;;;;;;5081943;28;20040;-85
2021/04/05 07:50:16;;;;;;;8.32;1.02;;;3.20;90.00;;;;;;5086005;28;20088;-85
2021/04/05 07:53:09;;;;;;;8.07;1.13;;;3.30;90.20;;;;;;5057294;28;20463;-85
2021/04/05 07:55:36;;;;;;;3.85;1.00;;;3.40;90.20;;;;;;5060943;28;20074;-84
2021/04/05 07:58:31;;;;;;;7.68;1.20;;;3.50;89.70;;;;;;5058209;28;20063;-84
2021/04/05 08:01:07;;;;;;;9.88;1.45;;;3.60;89.40;;;;;;5079160;28;20040;-85
2021/04/05 08:03:59;;;;;;;7.10;1.10;;;3.60;89.10;;;;;;5089194;28;20036;-84
2021/04/05 08:06:32;;;;;;;3.17;0.68;;;3.70;88.50;;;;;;5063306;28;20048;-84
2021/04/05 08:09:06;;;;;;;3.10;0.70;;;3.50;88.40;;;;;;5087701;28;20091;-84
2021/04/05 08:11:46;;;;;;;6.03;0.60;;;3.10;89.10;;;;;;5071425;28;20048;-82
2021/04/05 08:14:45;;;;;;;1.98;0.55;;;2.60;90.10;;;;;;5092066;28;20071;-82
2021/04/05 08:17:23;;;;;;;7.57;0.77;;;2.20;90.80;;;;;;5088256;28;20474;-81
2021/04/05 08:20:02;;;;;;;8.43;1.33;;;2.00;91.20;;;;;;5074657;28;20058;-81
2021/04/05 08:22:50;;;;;;;9.00;1.50;;;1.80;91.00;;;;;;5091832;28;20541;-82
2021/04/05 08:28:46;;;;;;;11.35;1.50;;;1.70;91.40;;;;;;5088948;28;20127;-80
2021/04/05 08:31:36;;;;;;;14.10;1.73;;;1.80;91.40;;;;;;5080804;28;20052;-82
2021/04/05 08:34:24;;;;;;;14.85;1.90;;;1.80;91.50;;;;;;5080312;28;20021;-80
2021/04/05 08:36:53;;;;;;;15.93;1.92;;;1.90;91.50;;;;;;5078486;28;20065;-80
2021/04/05 08:39:49;;;;;;;14.18;1.80;;;2.00;91.40;;;;;;5087227;28;20228;-80
2021/04/05 08:42:27;;;;;;;16.10;2.13;;;2.00;91.40;;;;;;5087084;28;20178;-80
2021/04/05 08:45:23;;;;;;;10.13;1.90;;;1.90;91.50;;;;;;5088574;28;20024;-81
2021/04/05 08:48:02;;;;;;;19.02;2.47;;;1.90;91.40;;;;;;5066948;28;20048;-81
2021/04/05 08:50:31;;;;;;;16.33;2.17;;;1.90;91.40;;;;;;5083655;28;20433;-80
2021/04/05 08:52:58;;;;;;;14.35;1.70;;;1.80;91.50;;;;;;5088466;28;20055;-81
2021/04/05 08:55:28;;;;;;;21.67;2.40;;;1.80;91.50;;;;;;5045712;28;20043;-81
2021/04/05 08:58:38;;;;;;;25.15;3.17;;;1.80;91.60;;;;;;5080892;28;20033;-81
2021/04/05 09:01:11;;;;;;;23.27;3.00;;;1.90;91.70;;;;;;5002904;28;20185;-81
2021/04/05 09:03:40;;;;;;;19.90;2.25;;;2.10;91.80;;;;;;5075631;28;20051;-81
2021/04/05 09:06:12;;;;;;;22.92;2.20;;;2.30;91.80;;;;;;5076982;28;20058;-80
2021/04/05 09:08:39;;;;;;;18.27;2.75;;;2.40;91.40;;;;;;5083410;28;20521;-79
2021/04/05 09:11:07;;;;;;;17.67;2.40;;;2.60;91.50;;;;;;5083594;28;20095;-80
2021/04/05 09:13:35;;;;;;;18.42;2.55;;;2.70;91.30;;;;;;5063341;28;20036;-80
2021/04/05 09:16:23;;;;;;;14.38;2.53;;;2.70;91.00;;;;;;5039110;28;20483;-79
2021/04/05 09:19:14;;;;;;;15.50;2.28;;;2.60;90.70;;;;;;5081248;28;20036;-79
2021/04/05 09:22:05;;;;;;;10.27;1.83;;;2.20;90.00;;;;;;5070326;28;20055;-81
2021/04/05 09:25:03;;;;;;;18.00;2.00;;;2.10;90.50;;;;;;5085968;28;20028;-80
2021/04/05 09:27:51;;;;;;;22.08;2.13;;;2.10;90.60;;;;;;5081472;28;20035;-80
2021/04/05 09:30:42;;;;;;;13.00;1.90;;;2.10;90.40;;;;;;5074326;28;20498;-81
2021/04/05 09:33:17;;;;;;;16.45;2.20;;;2.00;90.20;;;;;;5078707;28;20038;-79
2021/04/05 09:36:10;;;;;;;16.35;2.28;;;2.10;90.10;;;;;;5085125;28;20036;-82
2021/04/05 09:38:58;;;;;;;9.98;1.83;;;2.10;90.30;;;;;;5081595;28;20052;-81
2021/04/05 09:41:35;;;;;;;16.75;2.08;;;2.20;90.30;;;;;;5080446;28;20057;-81
2021/04/05 09:44:36;;;;;;;13.38;1.80;;;2.20;90.20;;;;;;5089624;28;20232;-81
2021/04/05 09:47:09;;;;;;;11.50;1.50;;;2.30;90.00;;;;;;4996825;28;20060;-81
2021/04/05 09:50:19;;;;;;;14.18;1.58;;;2.30;90.00;;;;;;5087363;28;20075;-80
2021/04/05 09:53:09;;;;;;;12.85;2.20;;;2.50;89.00;;;;;;5089497;28;20032;-80
2021/04/05 09:55:40;;;;;;;14.13;1.98;;;2.60;88.30;;;;;;5079018;28;20031;-79
2021/04/05 09:58:40;;;;;;;16.02;2.25;;;2.80;88.10;;;;;;5085210;28;20040;-80
2021/04/05 10:01:14;;;;;;;9.07;2.10;;;2.90;87.50;;;;;;5083151;28;20040;-80
2021/04/05 10:03:45;;;;;;;19.23;2.50;;;3.20;87.50;;;;;;5087122;28;20089;-80
2021/04/05 10:06:13;;;;;;;14.15;1.90;;;3.40;87.30;;;;;;5086617;28;20063;-80
2021/04/05 10:08:42;;;;;;;6.43;1.27;;;3.60;85.00;;;;;;5087338;28;20042;-80
2021/04/05 10:11:11;;;;;;;9.55;1.23;;;3.60;82.90;;;;;;5085837;28;20490;-81
2021/04/05 10:13:44;;;;;;;6.97;0.98;;;3.70;79.40;;;;;;5086602;28;20032;-81
2021/04/05 10:16:11;;;;;;;8.55;1.83;;;3.80;75.70;;;;;;5072879;28;20088;-80
2021/04/05 10:18:44;;;;;;;9.10;1.10;;;3.90;72.40;;;;;;5086154;28;20036;-82
2021/04/05 10:21:11;;;;;;;5.63;0.77;;;3.80;70.90;;;;;;5082317;28;20078;-81
2021/04/05 10:23:37;;;;;;;10.45;1.48;;;3.80;71.20;;;;;;5062966;28;20052;-80
2021/04/05 10:26:03;;;;;;;7.75;1.00;;;3.90;70.20;;;;;;5070273;28;20491;-82
2021/04/05 10:28:32;;;;;;;6.70;1.33;;;4.00;69.20;;;;;;5079270;28;20062;-82
2021/04/05 10:31:01;;;;;;;14.75;1.90;;;4.20;67.80;;;;;;5076560;28;20100;-82
2021/04/05 10:33:41;;;;;;;7.32;1.20;;;4.20;69.40;;;;;;5079856;28;20032;-83
2021/04/05 10:36:10;;;;;;;10.63;1.38;;;4.20;68.90;;;;;;5085572;28;20521;-82
2021/04/05 10:38:37;;;;;;;12.52;1.65;;;4.30;68.90;;;;;;5073987;28;20499;-82
2021/04/05 10:41:07;;;;;;;8.45;1.90;;;4.30;67.70;;;;;;5088717;28;20052;-85
2021/04/05 10:43:40;;;;;;;8.05;1.30;;;4.10;66.50;;;;;;5084114;28;20200;-81
2021/04/05 10:46:29;;;;;;;11.63;1.83;;;3.90;64.40;;;;;;5079223;28;20024;-85
2021/04/05 10:49:01;;;;;;;12.85;1.33;;;3.70;66.00;;;;;;5086986;28;20441;-82
2021/04/05 10:51:33;;;;;;;3.72;0.50;;;3.70;68.00;;;;;;5076987;28;20185;-83
2021/04/05 10:54:06;;;;;;;4.78;0.80;;;3.70;69.10;;;;;;5068225;28;20067;-82
2021/04/05 10:56:45;;;;;;;0.95;0.60;;;3.90;66.70;;;;;;5081552;28;20496;-80
2021/04/05 10:59:43;;;;;;;5.70;0.82;;;4.10;64.90;;;;;;5080350;28;20084;-83
2021/04/05 11:02:21;;;;;;;4.18;0.80;;;4.30;67.80;;;;;;5083666;28;20028;-81
2021/04/05 11:04:55;;;;;;;4.25;0.65;;;4.50;65.20;;;;;;5070549;28;20032;-83
2021/04/05 11:07:24;;;;;;;2.85;0.63;;;4.60;62.30;;;;;;5062262;28;20048;-83
2021/04/05 11:09:56;;;;;;;4.13;0.80;;;4.60;62.10;;;;;;5089974;28;20054;-81
2021/04/05 11:12:29;;;;;;;10.98;1.33;;;4.70;62.50;;;;;;5087484;28;20031;-82
2021/04/05 11:14:57;;;;;;;3.63;0.73;;;4.70;61.70;;;;;;5073419;28;20047;-82
2021/04/05 11:17:24;;;;;;;2.72;0.70;;;4.60;63.00;;;;;;5081415;28;20546;-83
2021/04/05 11:19:55;;;;;;;3.63;0.80;;;4.40;63.70;;;;;;5085001;28;20029;-83
2021/04/05 11:22:24;;;;;;;2.35;0.70;;;4.40;62.30;;;;;;5068835;28;20032;-83
2021/04/05 11:25:07;;;;;;;8.55;0.70;;;4.50;63.80;;;;;;5083569;28;20042;-83
2021/04/05 11:27:46;;;;;;;5.60;1.00;;;4.80;63.60;;;;;;5080305;28;20041;-84
2021/04/05 11:30:22;;;;;;;5.10;0.77;;;5.10;64.30;;;;;;5080192;28;20293;-83
2021/04/05 11:32:50;;;;;;;4.75;0.80;;;5.40;62.70;;;;;;5084808;28;20117;-83
2021/04/05 11:35:18;;;;;;;3.15;0.85;;;5.50;61.40;;;;;;5057436;28;20212;-83
2021/04/05 11:37:47;;;;;;;2.08;0.50;;;5.30;61.00;;;;;;5085107;28;20063;-83
2021/04/05 11:40:16;;;;;;;5.90;1.02;;;4.90;62.30;;;;;;5049637;28;20490;-82
2021/04/05 11:42:46;;;;;;;9.38;1.38;;;4.30;64.80;;;;;;5086389;28;20105;-81
2021/04/05 11:45:21;;;;;;;7.47;1.30;;;3.60;66.60;;;;;;5086449;28;20180;-82
2021/04/05 11:47:51;;;;;;;7.50;0.90;;;3.20;67.40;;;;;;5083457;28;20538;-83
2021/04/05 11:50:21;;;;;;;7.63;1.00;;;3.10;68.20;;;;;;5086612;28;20103;-82
2021/04/05 11:53:07;;;;;;;5.03;0.80;;;3.20;70.30;;;;;;5086177;28;20134;-82
2021/04/05 11:55:36;;;;;;;6.82;1.08;;;3.50;71.60;;;;;;5091281;28;20032;-83
2021/04/05 11:58:20;;;;;;;5.07;0.95;;;3.80;72.00;;;;;;5088294;28;20036;-81
2021/04/05 12:00:54;;;;;;;7.70;1.30;;;4.00;71.70;;;;;;5088599;28;20037;-83
2021/04/05 12:03:43;;;;;;;4.85;0.88;;;4.40;72.00;;;;;;5088703;28;20495;-82
2021/04/05 12:06:20;;;;;;;9.55;2.10;;;4.60;72.40;;;;;;5082038;28;20028;-80
2021/04/05 12:08:55;;;;;;;5.85;1.08;;;4.90;71.60;;;;;;5089432;28;20169;-80
2021/04/05 12:11:26;;;;;;;8.90;1.15;;;5.30;71.90;;;;;;5086259;28;20115;-80
2021/04/05 12:13:55;;;;;;;13.00;1.67;;;5.60;71.70;;;;;;5091346;28;20031;-82
2021/04/05 12:16:29;;;;;;;7.88;1.40;;;6.00;71.20;;;;;;5084640;28;20475;-81
2021/04/05 12:18:57;;;;;;;12.68;1.70;;;6.40;72.30;;;;;;5091599;28;20036;-79
2021/04/05 12:21:28;;;;;;;12.80;1.77;;;6.50;68.30;;;;;;5081258;28;20073;-81
2021/04/05 12:23:59;;;;;;;13.38;2.30;;;6.30;68.20;;;;;;5091634;28;20028;-81
2021/04/05 12:26:31;;;;;;;11.02;1.95;;;6.10;67.00;;;;;;5080210;28;20597;-81
2021/04/05 12:29:11;;;;;;;7.53;1.45;;;5.80;64.70;;;;;;5083050;28;20058;-82
2021/04/05 12:31:38;;;;;;;9.63;1.98;;;5.80;63.70;;;;;;5067847;28;20032;-80
2021/04/05 12:34:12;;;;;;;12.35;1.60;;;6.00;61.60;;;;;;5088886;28;20054;-80
2021/04/05 12:36:40;;;;;;;4.38;1.17;;;5.70;63.30;;;;;;5075397;28;20483;-81
2021/04/05 12:39:09;;;;;;;8.88;1.52;;;5.50;65.00;;;;;;5081374;28;20043;-83
2021/04/05 12:41:41;;;;;;;3.90;0.98;;;5.20;65.70;;;;;;5088725;28;20102;-83
2021/04/05 12:44:25;;;;;;;6.65;0.95;;;4.90;65.90;;;;;;5089955;28;20119;-82
2021/04/05 12:46:53;;;;;;;4.95;0.90;;;4.70;66.10;;;;;;5079827;28;20044;-86
2021/04/05 12:49:21;;;;;;;5.55;1.20;;;4.40;66.40;;;;;;5068216;28;20040;-87
2021/04/05 12:51:56;;;;;;;6.00;1.00;;;4.20;65.90;;;;;;5084901;28;20036;-84
2021/04/05 12:54:24;;;;;;;5.15;0.75;;;4.10;66.40;;;;;;5090072;28;20036;-86
2021/04/05 12:56:53;;;;;;;4.63;0.75;;;4.10;66.70;;;;;;5084516;28;20044;-85
2021/04/05 12:59:23;;;;;;;4.20;0.60;;;4.30;65.60;;;;;;5084936;28;20043;-85
2021/04/05 13:01:52;;;;;;;6.43;1.00;;;4.60;66.30;;;;;;5070777;28;20036;-84
2021/04/05 13:04:20;;;;;;;5.85;0.90;;;4.90;66.70;;;;;;5081998;28;20036;-82
2021/04/05 13:06:54;;;;;;;5.90;1.13;;;5.20;65.60;;;;;;5089774;28;20524;-85
2021/04/05 13:09:40;;;;;;;3.30;0.70;;;5.20;64.10;;;;;;5090344;28;20208;-82
2021/04/05 13:12:24;;;;;;;5.82;0.90;;;5.20;64.60;;;;;;5087508;28;20060;-83
2021/04/05 13:14:55;;;;;;;6.95;0.60;;;5.50;64.60;;;;;;5078452;28;20034;-81
2021/04/05 13:17:28;;;;;;;5.07;0.70;;;5.60;63.70;;;;;;5083025;28;20501;-84
2021/04/05 13:20:06;;;;;;;4.88;0.60;;;5.60;63.90;;;;;;5062739;28;20037;-82
2021/04/05 13:22:35;;;;;;;5.03;1.30;;;5.70;62.30;;;;;;5078296;28;20517;-84
2021/04/05 13:25:07;;;;;;;9.63;1.30;;;5.60;60.80;;;;;;5070870;28;20046;-84
2021/04/05 13:27:33;;;;;;;;;;;5.70;61.20;;;;;;5085469;28;20044;-82
2021/04/05 13:30:02;;;;;;;11.93;1.48;;;6.20;62.00;;;;;;5081231;28;19988;-82
2021/04/05 13:32:31;;;;;;;12.93;1.67;;;6.60;60.80;;;;;;5087404;28;20040;-82